createdAt,value
2019-03-22T00:01:05.138Z,94.30
2019-03-22T00:03:33.529Z,94.70
2019-03-22T00:06:01.909Z,94.60
2019-03-22T00:08:30.285Z,94.80
2019-03-22T00:10:58.662Z,94.40
2019-03-22T00:13:27.053Z,94.10
2019-03-22T00:15:55.434Z,93.90
2019-03-22T00:18:23.837Z,93.70
2019-03-22T00:20:52.284Z,93.70
2019-03-22T00:23:20.669Z,94.00
2019-03-22T00:25:49.048Z,94.10
2019-03-22T00:28:17.422Z,93.70
2019-03-22T00:30:45.829Z,93.30
2019-03-22T00:33:14.202Z,92.50
2019-03-22T00:35:42.583Z,91.70
2019-03-22T00:38:10.962Z,90.90
2019-03-22T00:40:39.345Z,91.20
2019-03-22T00:43:07.721Z,90.80
2019-03-22T00:45:36.101Z,89.20
2019-03-22T00:48:04.445Z,90.10
2019-03-22T00:50:32.928Z,88.80
2019-03-22T00:53:01.284Z,88.20
2019-03-22T00:55:29.620Z,87.30
2019-03-22T00:57:58.057Z,89.50
2019-03-22T01:00:26.454Z,90.00
2019-03-22T01:02:54.920Z,88.70
2019-03-22T01:05:23.341Z,87.60
2019-03-22T01:07:51.890Z,87.50
2019-03-22T01:10:20.287Z,88.80
2019-03-22T01:12:48.705Z,85.80
2019-03-22T01:15:17.110Z,85.50
2019-03-22T01:17:45.509Z,83.60
2019-03-22T01:20:13.925Z,83.20
2019-03-22T01:22:42.361Z,82.00
2019-03-22T01:25:11.119Z,80.40
2019-03-22T01:27:40.617Z,81.00
2019-03-22T01:30:14.671Z,81.50
2019-03-22T01:32:43.069Z,81.70
2019-03-22T01:35:11.515Z,83.20
2019-03-22T01:37:40.005Z,80.30
2019-03-22T01:40:10.539Z,79.30
2019-03-22T01:42:38.939Z,77.90
2019-03-22T01:45:10.193Z,78.40
2019-03-22T01:47:38.741Z,78.60
2019-03-22T01:50:20.646Z,79.50
2019-03-22T01:52:51.984Z,78.60
2019-03-22T01:55:20.462Z,79.70
2019-03-22T01:57:53.577Z,79.20
2019-03-22T02:00:19.339Z,78.20
2019-03-22T02:02:47.855Z,79.90
2019-03-22T02:05:16.230Z,79.60
2019-03-22T02:07:44.992Z,79.20
2019-03-22T02:10:13.370Z,79.10
2019-03-22T02:12:41.787Z,81.00
2019-03-22T02:15:15.628Z,79.30
2019-03-22T02:17:44.063Z,79.80
2019-03-22T02:20:14.359Z,79.70
2019-03-22T02:22:42.800Z,79.90
2019-03-22T02:25:11.207Z,80.90
2019-03-22T02:27:39.739Z,80.60
2019-03-22T02:30:16.987Z,81.40
2019-03-22T02:32:45.391Z,80.90
2019-03-22T02:35:27.497Z,81.90
2019-03-22T02:37:43.847Z,83.30
2019-03-22T02:40:13.811Z,82.70
2019-03-22T02:42:42.251Z,83.90
2019-03-22T02:45:12.387Z,84.20
2019-03-22T02:47:40.797Z,84.30
2019-03-22T02:50:18.839Z,83.90
2019-03-22T02:52:42.231Z,84.90
2019-03-22T02:55:11.143Z,85.10
2019-03-22T02:57:39.621Z,84.60
2019-03-22T03:00:11.277Z,84.70
2019-03-22T03:02:39.652Z,85.80
2019-03-22T03:05:09.406Z,87.40
2019-03-22T03:07:37.811Z,88.00
2019-03-22T03:10:11.236Z,88.70
2019-03-22T03:12:39.629Z,89.00
2019-03-22T03:15:13.764Z,89.30
2019-03-22T03:17:42.149Z,89.70
2019-03-22T03:20:17.916Z,90.00
2019-03-22T03:22:46.284Z,90.00
2019-03-22T03:25:14.958Z,90.20
2019-03-22T03:27:43.342Z,90.60
2019-03-22T03:30:16.880Z,90.70
2019-03-22T03:32:45.329Z,90.10
2019-03-22T03:35:13.797Z,90.30
2019-03-22T03:37:42.233Z,90.30
2019-03-22T03:40:12.091Z,90.50
2019-03-22T03:42:40.454Z,89.80
2019-03-22T03:45:32.387Z,89.40
2019-03-22T03:48:03.213Z,89.90
2019-03-22T03:50:31.610Z,89.90
2019-03-22T03:53:00.187Z,90.30
2019-03-22T03:55:29.094Z,90.10
2019-03-22T03:57:57.883Z,89.30
2019-03-22T04:00:26.251Z,88.50
2019-03-22T04:02:54.627Z,87.60
2019-03-22T04:05:25.105Z,87.00
2019-03-22T04:07:53.691Z,87.10
2019-03-22T04:10:22.145Z,87.20
2019-03-22T04:12:50.530Z,85.20
2019-03-22T04:15:19.016Z,85.20
2019-03-22T04:17:47.545Z,85.00
2019-03-22T04:20:15.987Z,85.00
2019-03-22T04:22:44.387Z,84.70
2019-03-22T04:25:12.796Z,84.60
2019-03-22T04:27:41.202Z,84.90
2019-03-22T04:30:09.616Z,84.00
2019-03-22T04:32:37.989Z,83.70
2019-03-22T04:35:09.311Z,83.30
2019-03-22T04:37:37.730Z,83.90
2019-03-22T04:40:29.425Z,83.60
2019-03-22T04:42:57.926Z,82.90
2019-03-22T04:45:28.805Z,82.30
2019-03-22T04:48:08.844Z,81.80
2019-03-22T04:50:39.050Z,80.60
2019-03-22T04:53:07.823Z,79.40
2019-03-22T04:55:38.327Z,79.60
2019-03-22T04:58:06.730Z,78.60
2019-03-22T05:00:35.097Z,76.90
2019-03-22T05:03:03.492Z,75.40
2019-03-22T05:05:31.855Z,75.00
2019-03-22T05:08:00.251Z,75.00
2019-03-22T05:10:28.658Z,73.70
2019-03-22T05:12:57.302Z,73.30
2019-03-22T05:15:25.667Z,72.90
2019-03-22T05:17:54.077Z,71.20
2019-03-22T05:20:22.456Z,70.90
2019-03-22T05:22:50.828Z,71.70
2019-03-22T05:25:19.340Z,71.00
2019-03-22T05:27:47.728Z,71.40
2019-03-22T05:30:36.250Z,71.40
2019-03-22T05:33:06.291Z,70.00
2019-03-22T05:35:34.723Z,70.40
2019-03-22T05:38:03.119Z,70.10
2019-03-22T05:40:31.550Z,69.50
2019-03-22T05:42:59.958Z,69.30
2019-03-22T05:45:28.362Z,67.20
2019-03-22T05:47:56.729Z,66.90
2019-03-22T05:50:25.142Z,67.10
2019-03-22T05:52:53.539Z,64.10
2019-03-22T05:55:21.925Z,63.40
2019-03-22T05:57:50.296Z,63.20
2019-03-22T06:00:18.700Z,60.40
2019-03-22T06:02:47.077Z,59.20
2019-03-22T06:05:15.510Z,58.30
2019-03-22T06:07:43.911Z,57.90
2019-03-22T06:10:12.398Z,59.00
2019-03-22T06:12:40.742Z,56.10
2019-03-22T06:15:09.789Z,55.80
2019-03-22T06:17:38.308Z,55.10
2019-03-22T06:20:07.153Z,52.20
2019-03-22T06:22:35.559Z,52.80
2019-03-22T06:25:04.997Z,55.00
2019-03-22T06:27:32.710Z,55.90
2019-03-22T06:30:01.287Z,54.20
2019-03-22T06:32:29.670Z,54.70
2019-03-22T06:34:58.059Z,54.40
2019-03-22T06:37:26.493Z,55.10
2019-03-22T06:39:54.892Z,53.20
2019-03-22T06:42:23.303Z,49.80
2019-03-22T06:44:51.713Z,46.10
2019-03-22T06:47:20.197Z,43.20
2019-03-22T06:49:48.573Z,38.50
2019-03-22T06:52:17.007Z,35.20
2019-03-22T06:54:45.466Z,39.80
2019-03-22T06:57:13.813Z,36.30
2019-03-22T06:59:42.203Z,34.00
2019-03-22T07:02:10.628Z,32.50
2019-03-22T07:04:39.009Z,34.10
2019-03-22T07:07:07.416Z,31.70
2019-03-22T07:09:35.858Z,35.40
2019-03-22T07:12:04.798Z,35.80
2019-03-22T07:14:33.170Z,39.00
2019-03-22T07:17:01.582Z,37.10
2019-03-22T07:19:30.014Z,35.50
2019-03-22T07:21:58.429Z,36.50
2019-03-22T07:24:26.898Z,39.50
2019-03-22T07:26:55.379Z,39.30
2019-03-22T07:29:23.782Z,37.80
2019-03-22T07:31:52.291Z,34.90
2019-03-22T07:34:20.729Z,33.30
2019-03-22T07:36:49.105Z,32.90
2019-03-22T07:39:17.613Z,33.00
2019-03-22T07:41:46.061Z,32.60
2019-03-22T07:44:14.437Z,33.60
2019-03-22T07:46:42.897Z,31.80
2019-03-22T07:49:11.278Z,32.60
2019-03-22T07:51:39.694Z,35.80
2019-03-22T07:54:08.100Z,32.80
2019-03-22T07:56:36.529Z,32.70
2019-03-22T07:59:05.018Z,29.80
2019-03-22T08:01:33.438Z,27.20
2019-03-22T08:04:01.848Z,30.00
2019-03-22T08:06:30.360Z,27.20
2019-03-22T08:08:58.731Z,32.10
2019-03-22T08:11:27.326Z,34.00
2019-03-22T08:13:55.754Z,34.50
2019-03-22T08:16:24.285Z,37.60
2019-03-22T08:18:52.684Z,36.70
2019-03-22T08:21:21.092Z,32.60
2019-03-22T08:23:49.469Z,31.70
2019-03-22T08:26:17.876Z,33.00
2019-03-22T08:28:46.343Z,32.30
2019-03-22T08:31:14.754Z,31.50
2019-03-22T08:33:43.163Z,30.50
2019-03-22T08:36:11.575Z,30.60
2019-03-22T08:38:39.977Z,29.30
2019-03-22T08:41:08.467Z,28.40
2019-03-22T08:43:36.870Z,30.30
2019-03-22T08:46:05.287Z,28.80
2019-03-22T08:48:33.747Z,33.00
2019-03-22T08:51:02.157Z,32.00
2019-03-22T08:53:30.533Z,31.50
2019-03-22T08:55:58.937Z,32.10
2019-03-22T08:58:27.361Z,29.50
2019-03-22T09:00:57.917Z,31.00
2019-03-22T09:03:25.872Z,34.00
2019-03-22T09:05:54.233Z,34.00
2019-03-22T09:08:22.682Z,31.00
2019-03-22T09:10:51.110Z,30.10
2019-03-22T09:13:19.519Z,29.10
2019-03-22T09:15:47.878Z,27.90
2019-03-22T09:18:16.338Z,28.10
2019-03-22T09:20:44.677Z,27.60
2019-03-22T09:23:13.062Z,29.70
2019-03-22T09:25:41.509Z,29.90
2019-03-22T09:28:10.502Z,31.40
2019-03-22T09:30:38.990Z,30.50
2019-03-22T09:33:07.465Z,30.20
2019-03-22T09:35:35.860Z,27.30
2019-03-22T09:38:12.823Z,27.60
2019-03-22T09:40:34.390Z,25.90
2019-03-22T09:43:02.811Z,28.20
2019-03-22T09:45:31.452Z,29.70
2019-03-22T09:47:59.941Z,32.60
2019-03-22T09:50:28.373Z,32.60
2019-03-22T09:52:56.743Z,32.70
2019-03-22T09:55:25.169Z,33.70
2019-03-22T09:57:53.629Z,33.50
2019-03-22T10:00:30.162Z,32.80
2019-03-22T10:02:58.739Z,35.40
2019-03-22T10:05:27.210Z,34.00
2019-03-22T10:07:55.596Z,32.80
2019-03-22T10:10:24.010Z,38.60
2019-03-22T10:12:52.381Z,40.40
2019-03-22T10:15:20.902Z,40.90
2019-03-22T10:17:49.402Z,41.20
2019-03-22T10:20:17.815Z,41.10
2019-03-22T10:22:46.181Z,42.20
2019-03-22T10:25:14.624Z,44.80
2019-03-22T10:27:42.975Z,46.80
2019-03-22T10:30:14.036Z,49.20
2019-03-22T10:32:42.435Z,50.10
2019-03-22T10:35:10.908Z,50.60
2019-03-22T10:37:39.258Z,53.10
2019-03-22T10:40:08.211Z,53.10
2019-03-22T10:42:36.586Z,54.30
2019-03-22T10:45:07.936Z,54.30
2019-03-22T10:47:36.306Z,54.70
2019-03-22T10:50:06.390Z,54.30
2019-03-22T10:52:34.799Z,54.30
2019-03-22T10:55:23.504Z,54.50
2019-03-22T10:57:33.558Z,55.00
2019-03-22T11:00:01.956Z,53.80
2019-03-22T11:02:30.362Z,53.60
2019-03-22T11:04:58.779Z,53.60
2019-03-22T11:07:27.200Z,54.50
2019-03-22T11:09:55.568Z,54.60
2019-03-22T11:12:24.008Z,53.60
2019-03-22T11:14:52.394Z,54.40
2019-03-22T11:17:20.758Z,54.30
2019-03-22T11:19:49.214Z,53.30
2019-03-22T11:22:17.572Z,54.00
2019-03-22T11:24:46.013Z,53.70
2019-03-22T11:27:14.414Z,54.60
2019-03-22T11:29:42.813Z,53.30
2019-03-22T11:32:12.751Z,54.30
2019-03-22T11:34:41.504Z,55.30
2019-03-22T11:37:09.978Z,55.10
2019-03-22T11:39:38.446Z,56.00
2019-03-22T11:42:06.820Z,55.00
2019-03-22T11:44:35.215Z,53.90
2019-03-22T11:47:03.575Z,53.50
2019-03-22T11:49:32.022Z,54.50
2019-03-22T11:52:00.560Z,54.80
2019-03-22T11:54:28.948Z,54.40
2019-03-22T11:56:57.418Z,55.00
2019-03-22T11:59:25.784Z,54.30
2019-03-22T12:01:54.275Z,55.60
2019-03-22T12:04:22.791Z,54.30
2019-03-22T12:06:51.128Z,54.00
2019-03-22T12:09:19.551Z,54.80
2019-03-22T12:11:48.098Z,55.70
2019-03-22T12:14:16.478Z,55.70
2019-03-22T12:16:44.853Z,54.10
2019-03-22T12:19:13.343Z,53.70
2019-03-22T12:21:41.713Z,55.30
2019-03-22T12:24:10.126Z,56.10
2019-03-22T12:26:38.536Z,55.60
2019-03-22T12:29:06.945Z,54.00
2019-03-22T12:31:35.354Z,54.10
2019-03-22T12:34:04.337Z,53.60
2019-03-22T12:36:32.733Z,53.20
2019-03-22T12:39:01.125Z,52.90
2019-03-22T12:41:29.494Z,53.80
2019-03-22T12:43:57.936Z,53.30
2019-03-22T12:46:26.304Z,53.70
2019-03-22T12:48:54.747Z,52.40
2019-03-22T12:51:23.145Z,52.70
2019-03-22T12:53:51.558Z,52.40
2019-03-22T12:56:20.070Z,52.70
2019-03-22T12:58:48.473Z,52.00
2019-03-22T13:01:16.878Z,52.60
2019-03-22T13:03:45.302Z,52.50
2019-03-22T13:06:13.702Z,51.80
2019-03-22T13:08:42.239Z,52.30
2019-03-22T13:11:10.642Z,52.10
2019-03-22T13:13:39.070Z,52.70
2019-03-22T13:16:07.441Z,51.80
2019-03-22T13:18:35.961Z,52.70
2019-03-22T13:21:04.383Z,50.90
2019-03-22T13:23:32.786Z,50.70
2019-03-22T13:26:01.186Z,51.70
2019-03-22T13:28:29.557Z,51.10
2019-03-22T13:30:57.925Z,52.10
2019-03-22T13:33:26.298Z,50.80
2019-03-22T13:35:54.711Z,51.70
2019-03-22T13:38:23.140Z,53.00
2019-03-22T13:40:51.572Z,51.50
2019-03-22T13:43:20.059Z,52.00
2019-03-22T13:45:48.564Z,50.70
2019-03-22T13:48:16.928Z,51.20
2019-03-22T13:50:45.360Z,51.80
2019-03-22T13:53:13.728Z,51.20
2019-03-22T13:55:42.130Z,52.00
2019-03-22T13:58:10.555Z,52.20
2019-03-22T14:00:38.944Z,52.50
2019-03-22T14:03:07.490Z,52.10
2019-03-22T14:05:35.918Z,52.00
2019-03-22T14:08:04.343Z,51.50
2019-03-22T14:10:35.141Z,52.80
2019-03-22T14:13:04.994Z,51.90
2019-03-22T14:15:33.399Z,51.70
2019-03-22T14:18:01.800Z,52.70
2019-03-22T14:20:30.372Z,52.90
2019-03-22T14:22:58.863Z,52.10
2019-03-22T14:25:27.267Z,53.60
2019-03-22T14:27:55.667Z,53.20
2019-03-22T14:30:24.074Z,52.00
2019-03-22T14:32:52.481Z,51.60
2019-03-22T14:35:20.890Z,51.30
2019-03-22T14:37:49.379Z,52.20
2019-03-22T14:40:17.782Z,51.20
2019-03-22T14:42:46.263Z,51.10
2019-03-22T14:45:14.654Z,51.30
2019-03-22T14:47:43.069Z,50.80
2019-03-22T14:50:11.713Z,51.10
2019-03-22T14:52:40.177Z,51.00
2019-03-22T14:55:08.596Z,51.80
2019-03-22T14:57:47.618Z,50.90
2019-03-22T15:00:08.970Z,51.00
2019-03-22T15:02:37.350Z,50.50
2019-03-22T15:05:06.692Z,50.70
2019-03-22T15:07:35.129Z,50.90
2019-03-22T15:10:04.540Z,50.50
2019-03-22T15:12:32.275Z,50.00
2019-03-22T15:15:05.041Z,49.70
2019-03-22T15:17:37.766Z,49.40
2019-03-22T15:20:24.012Z,50.20
2019-03-22T15:22:54.078Z,50.20
2019-03-22T15:25:24.118Z,49.70
2019-03-22T15:27:59.989Z,49.10
2019-03-22T15:30:35.770Z,49.10
2019-03-22T15:33:11.577Z,49.60
2019-03-22T15:35:58.142Z,49.40
2019-03-22T15:38:40.796Z,48.60
2019-03-22T15:41:09.260Z,48.80
2019-03-22T15:43:37.648Z,48.20
2019-03-22T15:46:06.060Z,48.90
2019-03-22T15:48:34.423Z,48.80
2019-03-22T15:51:02.765Z,49.30
2019-03-22T15:53:31.307Z,48.70
2019-03-22T15:55:59.673Z,48.70
2019-03-22T15:58:28.140Z,47.80
2019-03-22T16:00:56.499Z,47.90
2019-03-22T16:03:24.923Z,48.90
2019-03-22T16:05:53.303Z,48.10
2019-03-22T16:08:21.677Z,47.90
2019-03-22T16:10:50.126Z,48.90
2019-03-22T16:13:18.497Z,48.20
2019-03-22T16:15:46.991Z,49.50
2019-03-22T16:18:15.387Z,49.50
2019-03-22T16:20:43.767Z,50.30
2019-03-22T16:23:12.182Z,51.00
2019-03-22T16:25:40.596Z,51.30
2019-03-22T16:28:08.962Z,51.60
2019-03-22T16:30:37.354Z,52.00
2019-03-22T16:33:05.771Z,52.80
2019-03-22T16:35:34.432Z,53.30
2019-03-22T16:38:02.918Z,54.40
2019-03-22T16:40:31.301Z,54.40
2019-03-22T16:43:00.383Z,55.00
2019-03-22T16:45:39.811Z,54.00
2019-03-22T16:48:08.248Z,54.50
2019-03-22T16:50:36.788Z,55.00
2019-03-22T16:53:05.607Z,54.50
2019-03-22T16:55:34.021Z,54.20
2019-03-22T16:58:02.547Z,54.50
2019-03-22T17:00:31.041Z,54.80
2019-03-22T17:02:59.461Z,55.40
2019-03-22T17:05:27.865Z,55.10
2019-03-22T17:07:56.279Z,55.00
2019-03-22T17:10:24.639Z,55.40
2019-03-22T17:12:52.972Z,55.60
2019-03-22T17:15:21.385Z,56.20
2019-03-22T17:17:49.761Z,56.70
2019-03-22T17:20:18.151Z,57.50
2019-03-22T17:22:46.569Z,57.90
2019-03-22T17:25:14.978Z,57.80
2019-03-22T17:27:43.406Z,57.40
2019-03-22T17:30:12.063Z,57.50
2019-03-22T17:32:40.466Z,57.30
2019-03-22T17:35:09.134Z,56.90
2019-03-22T17:37:37.590Z,57.30
2019-03-22T17:40:07.234Z,56.30
2019-03-22T17:42:35.701Z,56.50
2019-03-22T17:45:09.865Z,56.60
2019-03-22T17:47:38.274Z,56.60
2019-03-22T17:50:08.526Z,56.40
2019-03-22T17:52:36.935Z,57.20
2019-03-22T17:55:07.209Z,57.10
2019-03-22T17:57:34.940Z,57.40
2019-03-22T18:00:05.240Z,57.10
2019-03-22T18:02:33.657Z,57.30
2019-03-22T18:05:02.170Z,57.60
2019-03-22T18:07:30.651Z,57.70
2019-03-22T18:09:59.077Z,57.40
2019-03-22T18:12:27.479Z,57.70
2019-03-22T18:14:55.902Z,57.90
2019-03-22T18:17:24.306Z,57.70
2019-03-22T18:19:52.846Z,58.30
2019-03-22T18:22:21.246Z,58.20
2019-03-22T18:24:49.621Z,59.20
2019-03-22T18:27:18.050Z,58.40
2019-03-22T18:29:46.423Z,58.40
2019-03-22T18:32:14.834Z,58.30
2019-03-22T18:34:43.254Z,59.10
2019-03-22T18:37:11.675Z,59.00
2019-03-22T18:39:40.101Z,59.40
2019-03-22T18:42:08.595Z,59.10
2019-03-22T18:44:36.986Z,59.50
2019-03-22T18:47:05.441Z,59.80
2019-03-22T18:49:33.861Z,59.40
2019-03-22T18:52:02.389Z,59.80
2019-03-22T18:54:30.782Z,59.50
2019-03-22T18:56:59.160Z,59.40
2019-03-22T18:59:27.578Z,58.30
2019-03-22T19:01:55.954Z,58.40
2019-03-22T19:04:24.483Z,58.50
2019-03-22T19:06:52.877Z,58.40
2019-03-22T19:09:21.346Z,58.60
2019-03-22T19:11:49.734Z,58.30
2019-03-22T19:14:18.141Z,57.90
2019-03-22T19:16:46.561Z,58.50
2019-03-22T19:19:14.970Z,58.50
2019-03-22T19:21:43.349Z,57.80
2019-03-22T19:24:11.732Z,59.10
2019-03-22T19:26:40.195Z,58.70
2019-03-22T19:29:08.671Z,59.10
2019-03-22T19:31:37.046Z,59.40
2019-03-22T19:34:05.420Z,59.80
2019-03-22T19:36:33.762Z,60.00
2019-03-22T19:39:02.142Z,60.10
2019-03-22T19:41:30.562Z,62.10
2019-03-22T19:43:58.993Z,61.30
2019-03-22T19:46:27.376Z,61.40
2019-03-22T19:48:55.785Z,60.70
2019-03-22T19:51:24.158Z,61.90
2019-03-22T19:53:52.713Z,61.70
2019-03-22T19:56:21.122Z,63.00
2019-03-22T19:58:49.562Z,61.60
2019-03-22T20:01:17.958Z,62.20
2019-03-22T20:03:46.381Z,62.20
2019-03-22T20:06:14.799Z,61.50
2019-03-22T20:08:43.212Z,62.40
2019-03-22T20:11:11.576Z,62.50
2019-03-22T20:13:39.996Z,62.10
2019-03-22T20:16:08.378Z,62.50
2019-03-22T20:18:36.787Z,61.80
2019-03-22T20:21:05.194Z,62.60
2019-03-22T20:23:33.722Z,63.70
2019-03-22T20:26:02.233Z,65.80
2019-03-22T20:28:30.587Z,65.80
2019-03-22T20:30:58.946Z,67.70
2019-03-22T20:33:27.442Z,69.60
2019-03-22T20:35:55.814Z,68.20
2019-03-22T20:38:24.236Z,68.60
2019-03-22T20:40:52.666Z,67.20
2019-03-22T20:43:21.274Z,68.20
2019-03-22T20:45:49.949Z,68.90
2019-03-22T20:48:18.348Z,68.80
2019-03-22T20:50:46.733Z,67.70
2019-03-22T20:53:15.113Z,70.90
2019-03-22T20:55:43.516Z,69.40
2019-03-22T20:58:11.900Z,68.00
2019-03-22T21:00:40.307Z,69.00
2019-03-22T21:03:08.729Z,71.00
2019-03-22T21:05:37.138Z,71.30
2019-03-22T21:08:05.554Z,70.70
2019-03-22T21:10:34.072Z,71.60
2019-03-22T21:13:02.517Z,73.20
2019-03-22T21:15:31.002Z,77.40
2019-03-22T21:17:59.404Z,77.10
2019-03-22T21:20:27.863Z,76.70
2019-03-22T21:22:56.274Z,77.30
2019-03-22T21:25:24.717Z,74.10
2019-03-22T21:27:53.358Z,70.60
2019-03-22T21:30:22.578Z,69.50
2019-03-22T21:32:51.291Z,69.40
2019-03-22T21:35:22.857Z,69.80
2019-03-22T21:37:49.737Z,69.60
2019-03-22T21:40:18.258Z,71.20
2019-03-22T21:42:46.629Z,74.00
2019-03-22T21:45:15.122Z,78.50
2019-03-22T21:47:43.602Z,79.30
2019-03-22T21:50:12.021Z,79.70
2019-03-22T21:52:40.437Z,77.80
2019-03-22T21:55:09.006Z,74.80
2019-03-22T21:57:37.389Z,80.10
2019-03-22T22:00:13.987Z,75.60
2019-03-22T22:02:42.347Z,77.50
2019-03-22T22:05:10.892Z,78.00
2019-03-22T22:07:39.287Z,76.00
2019-03-22T22:10:08.531Z,73.80
2019-03-22T22:12:37.023Z,73.10
2019-03-22T22:15:08.814Z,74.50
2019-03-22T22:17:39.236Z,75.40
2019-03-22T22:20:07.493Z,78.90
2019-03-22T22:22:35.945Z,79.50
2019-03-22T22:25:06.173Z,81.70
2019-03-22T22:27:34.804Z,80.30
2019-03-22T22:30:04.976Z,79.40
2019-03-22T22:32:33.335Z,79.60
2019-03-22T22:35:01.724Z,80.20
2019-03-22T22:37:30.149Z,79.70
2019-03-22T22:39:58.585Z,78.40
2019-03-22T22:42:27.085Z,77.60
2019-03-22T22:44:55.457Z,78.20
2019-03-22T22:47:23.948Z,77.40
2019-03-22T22:49:52.325Z,79.00
2019-03-22T22:52:20.775Z,80.50
2019-03-22T22:54:49.190Z,80.90
2019-03-22T22:57:17.587Z,82.80
2019-03-22T22:59:46.044Z,83.30
2019-03-22T23:02:14.457Z,83.20
2019-03-22T23:04:42.868Z,84.30
2019-03-22T23:07:11.286Z,84.80
2019-03-22T23:09:39.722Z,85.70
2019-03-22T23:12:08.125Z,85.40
2019-03-22T23:14:36.548Z,87.10
2019-03-22T23:17:05.485Z,84.50
2019-03-22T23:19:33.868Z,83.70
2019-03-22T23:22:02.253Z,83.80
2019-03-22T23:24:30.664Z,83.50
2019-03-22T23:26:58.997Z,85.10
2019-03-22T23:29:27.410Z,85.00
2019-03-22T23:31:55.830Z,83.50
2019-03-22T23:34:24.266Z,88.10
2019-03-22T23:36:52.623Z,88.10
2019-03-22T23:39:20.969Z,89.50
2019-03-22T23:41:49.390Z,87.20
2019-03-22T23:44:17.797Z,86.50
2019-03-22T23:46:46.217Z,85.70
2019-03-22T23:49:14.636Z,86.00
2019-03-22T23:51:43.013Z,85.00
2019-03-22T23:54:11.498Z,83.70
2019-03-22T23:56:39.886Z,84.50
2019-03-22T23:59:08.282Z,85.30
